Terminal Aerodrome Forecast
Issued by NWS Twin Cities, MN

Home | Current Version | Previous Version | Graphics & Text | Print | Product List | Glossary On
Versions: 1 2 3 4 5 6 7 8 9 10 11 12 13 14 15 16 17 18 19
000
FTUS43 KMPX 141736
TAFSTC
TAF
KSTC 141736Z 1418/1518 09008G16KT P6SM SCT100
     FM142200 05009G14KT P6SM -SHRA BKN035
     FM150000 03010G18KT 5SM SHRA BR OVC015
     FM150500 34014G22KT 6SM -SHRA BR OVC015
     FM150800 33015G22KT P6SM -RA OVC025
     FM151100 32011KT P6SM SCT035=

USA.gov is the U.S. government's official web portal to all federal, state and local government web resources and services.